createdAt,value
2018-11-01T00:01:40.978Z,98127.67
2018-11-01T00:04:09.505Z,98132.13
2018-11-01T00:06:38.003Z,98134.25
2018-11-01T00:09:08.752Z,98133.92
2018-11-01T00:11:37.318Z,98141.02
2018-11-01T00:14:07.251Z,98151.16
2018-11-01T00:16:36.055Z,98158.07
2018-11-01T00:19:05.202Z,98155.17
2018-11-01T00:21:33.827Z,98161.89
2018-11-01T00:24:02.406Z,98164.44
2018-11-01T00:26:30.895Z,98157.92
2018-11-01T00:28:59.625Z,98149.33
2018-11-01T00:31:28.116Z,98145.00
2018-11-01T00:33:56.643Z,98147.77
2018-11-01T00:36:25.113Z,98148.02
2018-11-01T00:38:53.642Z,98145.20
2018-11-01T00:41:22.345Z,98143.19
2018-11-01T00:43:51.313Z,98136.92
2018-11-01T00:46:19.954Z,98142.74
2018-11-01T00:48:48.698Z,98145.39
2018-11-01T00:51:17.218Z,98136.83
2018-11-01T00:53:45.857Z,98141.42
2018-11-01T00:56:14.685Z,98134.92
2018-11-01T00:58:43.174Z,98137.35
2018-11-01T01:01:11.691Z,98136.75
2018-11-01T01:03:40.190Z,98131.70
2018-11-01T01:06:08.758Z,98128.09
2018-11-01T01:08:37.566Z,98129.47
2018-11-01T01:11:06.494Z,98115.23
2018-11-01T01:13:35.011Z,98129.86
2018-11-01T01:16:03.955Z,98132.16
2018-11-01T01:18:32.647Z,98134.58
2018-11-01T01:21:01.299Z,98121.77
2018-11-01T01:23:29.951Z,98127.97
2018-11-01T01:25:59.318Z,98122.39
2018-11-01T01:28:27.838Z,98109.54
2018-11-01T01:30:56.660Z,98098.39
2018-11-01T01:33:25.447Z,98105.75
2018-11-01T01:35:53.964Z,98093.33
2018-11-01T01:38:22.468Z,98091.84
2018-11-01T01:40:51.337Z,98085.05
2018-11-01T01:43:19.849Z,98082.63
2018-11-01T01:45:48.314Z,98080.08
2018-11-01T01:48:17.223Z,98081.62
2018-11-01T01:50:45.765Z,98069.86
2018-11-01T01:53:14.216Z,98064.59
2018-11-01T01:55:42.820Z,98060.95
2018-11-01T01:58:11.923Z,98062.86
2018-11-01T02:00:40.433Z,98057.05
2018-11-01T02:03:08.939Z,98046.89
2018-11-01T02:05:37.461Z,98048.53
2018-11-01T02:08:06.450Z,98042.56
2018-11-01T02:10:34.967Z,98048.56
2018-11-01T02:13:03.490Z,98042.49
2018-11-01T02:15:32.183Z,98048.36
2018-11-01T02:18:00.683Z,98042.05
2018-11-01T02:20:29.249Z,98044.13
2018-11-01T02:22:57.760Z,98056.00
2018-11-01T02:25:26.522Z,98066.19
2018-11-01T02:28:00.250Z,98065.50
2018-11-01T02:30:28.720Z,98074.61
2018-11-01T02:32:57.214Z,98081.80
2018-11-01T02:35:25.703Z,98094.94
2018-11-01T02:37:54.275Z,98106.61
2018-11-01T02:40:22.768Z,98109.09
2018-11-01T02:42:51.251Z,98096.52
2018-11-01T02:45:20.078Z,98087.39
2018-11-01T02:47:48.817Z,98079.95
2018-11-01T02:50:17.337Z,98071.78
2018-11-01T02:52:45.802Z,98067.41
2018-11-01T02:55:14.617Z,98070.53
2018-11-01T02:57:43.127Z,98072.38
2018-11-01T03:00:13.511Z,98066.38
2018-11-01T03:02:41.988Z,98082.58
2018-11-01T03:05:11.578Z,98091.09
2018-11-01T03:07:40.538Z,98097.05
2018-11-01T03:10:10.683Z,98095.50
2018-11-01T03:12:39.898Z,98115.30
2018-11-01T03:15:10.398Z,98128.25
2018-11-01T03:17:38.999Z,98120.75
2018-11-01T03:20:08.731Z,98116.32
2018-11-01T03:22:37.510Z,98121.45
2018-11-01T03:25:06.607Z,98113.17
2018-11-01T03:27:35.143Z,98109.23
2018-11-01T03:30:03.726Z,98097.05
2018-11-01T03:32:32.612Z,98095.70
2018-11-01T03:35:01.314Z,98095.97
2018-11-01T03:37:30.115Z,98090.96
2018-11-01T03:39:58.649Z,98085.93
2018-11-01T03:42:27.179Z,98077.64
2018-11-01T03:44:55.890Z,98069.47
2018-11-01T03:47:24.922Z,98069.33
2018-11-01T03:49:53.759Z,98070.09
2018-11-01T03:52:22.299Z,98072.47
2018-11-01T03:54:50.820Z,98079.91
2018-11-01T03:57:19.574Z,98073.68
2018-11-01T03:59:48.192Z,98078.76
2018-11-01T04:02:16.662Z,98083.13
2018-11-01T04:04:45.158Z,98083.78
2018-11-01T04:07:13.707Z,98089.50
2018-11-01T04:09:42.458Z,98103.80
2018-11-01T04:12:11.336Z,98101.96
2018-11-01T04:14:40.117Z,98090.14
2018-11-01T04:17:08.685Z,98067.23
2018-11-01T04:19:37.208Z,98073.36
2018-11-01T04:22:06.728Z,98083.32
2018-11-01T04:24:36.684Z,98077.58
2018-11-01T04:27:05.647Z,98065.70
2018-11-01T04:29:35.779Z,98074.33
2018-11-01T04:32:04.992Z,98073.02
2018-11-01T04:34:33.536Z,98062.48
2018-11-01T04:37:01.986Z,98044.27
2018-11-01T04:39:31.606Z,98034.33
2018-11-01T04:42:00.290Z,98026.45
2018-11-01T04:44:28.742Z,98030.63
2018-11-01T04:46:57.278Z,98027.16
2018-11-01T04:49:25.735Z,98019.63
2018-11-01T04:51:54.232Z,98027.77
2018-11-01T04:54:22.752Z,98027.83
2018-11-01T04:56:51.222Z,98032.19
2018-11-01T04:59:19.665Z,98029.06
2018-11-01T05:01:48.224Z,98030.88
2018-11-01T05:04:16.704Z,98013.60
2018-11-01T05:06:45.283Z,98001.83
2018-11-01T05:09:14.062Z,97996.36
2018-11-01T05:11:42.548Z,98007.76
2018-11-01T05:14:11.144Z,98018.86
2018-11-01T05:16:39.600Z,98017.34
2018-11-01T05:19:08.224Z,98030.09
2018-11-01T05:21:36.704Z,98031.58
2018-11-01T05:24:05.859Z,98037.88
2018-11-01T05:26:34.895Z,98040.99
2018-11-01T05:29:03.599Z,98043.95
2018-11-01T05:31:32.373Z,98032.97
2018-11-01T05:34:00.948Z,98016.29
2018-11-01T05:36:29.441Z,97997.81
2018-11-01T05:38:57.907Z,97979.75
2018-11-01T05:41:26.398Z,97984.50
2018-11-01T05:43:54.844Z,97979.61
2018-11-01T05:46:23.612Z,97976.58
2018-11-01T05:48:52.088Z,97976.27
2018-11-01T05:51:20.587Z,97981.92
2018-11-01T05:53:49.269Z,97986.81
2018-11-01T05:56:17.741Z,97983.81
2018-11-01T05:58:46.311Z,97993.86
2018-11-01T06:01:18.930Z,98009.20
2018-11-01T06:03:47.437Z,98002.59
2018-11-01T06:06:15.917Z,97999.13
2018-11-01T06:08:46.231Z,97996.25
2018-11-01T06:11:14.788Z,97995.78
2018-11-01T06:13:43.240Z,97987.58
2018-11-01T06:16:12.396Z,97987.50
2018-11-01T06:18:41.194Z,97991.32
2018-11-01T06:21:09.682Z,97991.41
2018-11-01T06:23:38.215Z,97995.50
2018-11-01T06:26:06.779Z,98001.63
2018-11-01T06:28:35.276Z,98002.42
2018-11-01T06:31:03.748Z,98009.42
2018-11-01T06:33:32.246Z,98014.09
2018-11-01T06:36:03.600Z,98008.50
2018-11-01T06:38:32.388Z,97999.98
2018-11-01T06:41:01.087Z,97999.48
2018-11-01T06:43:29.594Z,98017.80
2018-11-01T06:45:58.137Z,98007.30
2018-11-01T06:48:26.668Z,97998.67
2018-11-01T06:50:55.164Z,98008.00
2018-11-01T06:53:23.620Z,97998.08
2018-11-01T06:55:52.447Z,97996.19
2018-11-01T06:58:20.969Z,97986.41
2018-11-01T07:00:49.417Z,97986.30
2018-11-01T07:03:17.916Z,97981.48
2018-11-01T07:05:46.484Z,97970.42
2018-11-01T07:08:14.863Z,97968.84
2018-11-01T07:10:43.343Z,97956.19
2018-11-01T07:13:11.813Z,97964.44
2018-11-01T07:15:40.366Z,97975.47
2018-11-01T07:18:09.413Z,97981.69
2018-11-01T07:20:37.912Z,97979.73
2018-11-01T07:23:06.788Z,97998.63
2018-11-01T07:25:35.319Z,97997.66
2018-11-01T07:28:04.041Z,97980.71
2018-11-01T07:30:32.561Z,97972.67
2018-11-01T07:33:01.240Z,97961.28
2018-11-01T07:35:29.685Z,97951.76
2018-11-01T07:37:58.287Z,97943.52
2018-11-01T07:40:27.066Z,97945.58
2018-11-01T07:42:55.813Z,97952.84
2018-11-01T07:45:24.314Z,97950.06
2018-11-01T07:47:53.333Z,97936.63
2018-11-01T07:50:21.827Z,97931.59
2018-11-01T07:52:50.643Z,97927.78
2018-11-01T07:55:19.342Z,97925.25
2018-11-01T07:57:47.982Z,97927.02
2018-11-01T08:00:17.757Z,97921.88
2018-11-01T08:02:47.165Z,97918.81
2018-11-01T08:05:16.319Z,97928.52
2018-11-01T08:07:44.869Z,97928.48
2018-11-01T08:10:16.443Z,97933.80
2018-11-01T08:12:45.883Z,97926.84
2018-11-01T08:15:16.686Z,97897.53
2018-11-01T08:17:45.172Z,97894.83
2018-11-01T08:20:14.761Z,97905.37
2018-11-01T08:22:43.393Z,97910.39
2018-11-01T08:25:12.867Z,97888.38
2018-11-01T08:27:42.009Z,97873.34
2018-11-01T08:30:13.024Z,97873.00
2018-11-01T08:32:41.574Z,97878.12
2018-11-01T08:35:10.847Z,97884.02
2018-11-01T08:37:40.130Z,97882.95
2018-11-01T08:40:09.663Z,97880.59
2018-11-01T08:42:38.620Z,97894.55
2018-11-01T08:45:09.572Z,97904.41
2018-11-01T08:47:38.584Z,97910.29
2018-11-01T08:50:08.622Z,97902.42
2018-11-01T08:52:37.459Z,97903.83
2018-11-01T08:55:07.305Z,97904.22
2018-11-01T08:57:35.759Z,97905.15
2018-11-01T09:00:04.370Z,97904.34
2018-11-01T09:02:32.852Z,97890.27
2018-11-01T09:05:02.225Z,97890.68
2018-11-01T09:07:30.992Z,97893.60
2018-11-01T09:09:59.396Z,97874.59
2018-11-01T09:12:27.844Z,97850.89
2018-11-01T09:14:56.403Z,97843.52
2018-11-01T09:17:24.929Z,97852.17
2018-11-01T09:19:53.435Z,97871.64
2018-11-01T09:22:21.877Z,97863.90
2018-11-01T09:24:50.582Z,97843.52
2018-11-01T09:27:19.086Z,97830.72
2018-11-01T09:29:47.576Z,97829.77
2018-11-01T09:32:16.084Z,97842.25
2018-11-01T09:34:44.668Z,97860.17
2018-11-01T09:37:13.090Z,97871.38
2018-11-01T09:39:41.625Z,97855.89
2018-11-01T09:42:10.104Z,97853.77
2018-11-01T09:44:38.788Z,97854.77
2018-11-01T09:47:07.611Z,97857.61
2018-11-01T09:49:35.816Z,97854.44
2018-11-01T09:52:04.320Z,97854.30
2018-11-01T09:54:32.935Z,97850.17
2018-11-01T09:57:01.605Z,97875.38
2018-11-01T09:59:30.072Z,97871.53
2018-11-01T10:01:58.592Z,97867.17
2018-11-01T10:05:30.048Z,97862.70
2018-11-01T10:07:58.737Z,97868.22
2018-11-01T10:10:27.224Z,97858.02
2018-11-01T10:12:55.767Z,97846.53
2018-11-01T10:15:24.455Z,97841.66
2018-11-01T10:17:53.320Z,97818.70
2018-11-01T10:20:21.412Z,97815.35
2018-11-01T10:22:50.022Z,97806.88
2018-11-01T10:25:18.700Z,97814.37
2018-11-01T10:27:47.262Z,97827.96
2018-11-01T10:30:17.498Z,97831.81
2018-11-01T10:32:46.502Z,97829.20
2018-11-01T10:35:15.991Z,97810.69
2018-11-01T10:37:44.488Z,97820.22
2018-11-01T10:40:15.176Z,97817.72
2018-11-01T10:42:43.760Z,97819.16
2018-11-01T10:45:12.267Z,97814.89
2018-11-01T10:47:40.903Z,97817.52
2018-11-01T10:50:14.465Z,97822.55
2018-11-01T10:52:43.143Z,97832.39
2018-11-01T10:55:12.630Z,97848.25
2018-11-01T10:57:41.376Z,97839.98
2018-11-01T11:00:16.244Z,97842.29
2018-11-01T11:02:47.036Z,97854.58
2018-11-01T11:05:17.860Z,97847.44
2018-11-01T11:07:46.784Z,97844.53
2018-11-01T11:10:16.368Z,97847.84
2018-11-01T11:12:44.833Z,97847.66
2018-11-01T11:15:13.623Z,97850.12
2018-11-01T11:17:42.061Z,97842.31
2018-11-01T11:20:11.863Z,97862.25
2018-11-01T11:22:40.517Z,97851.37
2018-11-01T11:25:10.648Z,97833.02
2018-11-01T11:27:39.496Z,97828.96
2018-11-01T11:30:09.282Z,97831.64
2018-11-01T11:32:38.345Z,97845.37
2018-11-01T11:35:07.363Z,97856.84
2018-11-01T11:37:36.298Z,97848.55
2018-11-01T11:40:05.421Z,97849.88
2018-11-01T11:42:33.918Z,97859.97
2018-11-01T11:45:02.414Z,97866.83
2018-11-01T11:47:30.944Z,97852.94
2018-11-01T11:49:59.407Z,97850.94
2018-11-01T11:52:27.878Z,97861.45
2018-11-01T11:54:56.636Z,97861.60
2018-11-01T11:57:25.080Z,97845.31
2018-11-01T11:59:53.555Z,97829.73
2018-11-01T12:02:22.013Z,97816.23
2018-11-01T12:04:50.539Z,97811.44
2018-11-01T12:07:19.137Z,97797.93
2018-11-01T12:09:47.643Z,97782.85
2018-11-01T12:12:16.120Z,97784.52
2018-11-01T12:14:44.572Z,97796.90
2018-11-01T12:17:13.516Z,97807.27
2018-11-01T12:19:42.287Z,97795.72
2018-11-01T12:22:10.807Z,97782.92
2018-11-01T12:24:39.271Z,97773.98
2018-11-01T12:27:07.739Z,97778.55
2018-11-01T12:29:36.435Z,97766.77
2018-11-01T12:32:05.136Z,97757.30
2018-11-01T12:34:33.831Z,97740.69
2018-11-01T12:37:02.488Z,97738.23
2018-11-01T12:39:31.340Z,97748.12
2018-11-01T12:41:59.812Z,97739.65
2018-11-01T12:44:28.499Z,97751.59
2018-11-01T12:46:57.192Z,97737.47
2018-11-01T12:49:25.924Z,97745.70
2018-11-01T12:51:54.635Z,97738.05
2018-11-01T12:54:23.442Z,97741.28
2018-11-01T12:56:52.183Z,97727.03
2018-11-01T12:59:20.738Z,97730.87
2018-11-01T13:01:49.624Z,97737.06
2018-11-01T13:04:18.087Z,97728.11
2018-11-01T13:06:46.919Z,97709.14
2018-11-01T13:09:15.358Z,97704.17
2018-11-01T13:11:44.380Z,97703.33
2018-11-01T13:14:13.143Z,97695.55
2018-11-01T13:16:41.885Z,97701.80
2018-11-01T13:19:10.367Z,97709.47
2018-11-01T13:21:38.831Z,97713.67
2018-11-01T13:24:07.519Z,97714.61
2018-11-01T13:26:36.167Z,97720.95
2018-11-01T13:29:05.136Z,97721.73
2018-11-01T13:31:34.121Z,97723.89
2018-11-01T13:34:02.670Z,97731.83
2018-11-01T13:36:31.198Z,97735.77
2018-11-01T13:38:59.661Z,97710.64
2018-11-01T13:41:28.160Z,97736.83
2018-11-01T13:43:56.770Z,97729.91
2018-11-01T13:46:25.543Z,97741.07
2018-11-01T13:48:54.000Z,97744.22
2018-11-01T13:51:22.504Z,97755.17
2018-11-01T13:53:50.965Z,97762.02
2018-11-01T13:56:19.505Z,97765.80
2018-11-01T13:58:48.016Z,97767.86
2018-11-01T14:01:16.878Z,97762.64
2018-11-01T14:03:45.343Z,97752.11
2018-11-01T14:06:13.820Z,97753.27
2018-11-01T14:08:42.287Z,97759.88
2018-11-01T14:11:10.999Z,97770.27
2018-11-01T14:13:39.711Z,97769.69
2018-11-01T14:16:08.207Z,97776.91
2018-11-01T14:18:36.668Z,97774.72
2018-11-01T14:21:05.151Z,97767.13
2018-11-01T14:23:33.632Z,97762.50
2018-11-01T14:26:02.108Z,97762.97
2018-11-01T14:28:31.023Z,97775.23
2018-11-01T14:30:59.928Z,97789.64
2018-11-01T14:33:28.620Z,97786.55
2018-11-01T14:35:57.115Z,97781.91
2018-11-01T14:38:25.588Z,97770.05
2018-11-01T14:40:54.058Z,97780.12
2018-11-01T14:43:22.511Z,97774.37
2018-11-01T14:45:51.940Z,97768.13
2018-11-01T14:48:20.453Z,97777.27
2018-11-01T14:50:49.394Z,97781.35
2018-11-01T14:53:18.729Z,97774.13
2018-11-01T14:55:47.901Z,97775.86
2018-11-01T14:58:16.103Z,97770.02
2018-11-01T15:00:43.423Z,97779.59
2018-11-01T15:03:11.952Z,97786.39
2018-11-01T15:05:40.446Z,97784.82
2018-11-01T15:08:08.930Z,97790.25
2018-11-01T15:10:37.567Z,97779.61
2018-11-01T15:13:06.644Z,97766.00
2018-11-01T15:15:35.101Z,97773.61
2018-11-01T15:18:03.588Z,97789.06
2018-11-01T15:20:32.300Z,97795.67
2018-11-01T15:23:00.803Z,97787.55
2018-11-01T15:25:29.312Z,97784.09
2018-11-01T15:27:58.032Z,97787.23
2018-11-01T15:30:26.526Z,97781.23
2018-11-01T15:32:55.142Z,97775.70
2018-11-01T15:35:23.590Z,97773.35
2018-11-01T15:37:52.072Z,97776.87
2018-11-01T15:40:20.643Z,97783.16
2018-11-01T15:42:49.138Z,97779.64
2018-11-01T15:45:17.602Z,97780.80
2018-11-01T15:47:46.094Z,97795.12
2018-11-01T15:50:15.247Z,97790.01
2018-11-01T15:52:43.961Z,97783.44
2018-11-01T15:55:12.441Z,97780.25
2018-11-01T15:57:40.882Z,97787.62
2018-11-01T16:00:11.282Z,97791.50
2018-11-01T16:02:41.156Z,97791.73
2018-11-01T16:05:10.145Z,97781.30
2018-11-01T16:07:39.007Z,97789.95
2018-11-01T16:10:08.600Z,97790.53
2018-11-01T16:12:37.609Z,97795.73
2018-11-01T16:15:08.352Z,97796.56
2018-11-01T16:17:36.807Z,97809.20
2018-11-01T16:20:05.670Z,97817.13
2018-11-01T16:22:34.450Z,97821.94
2018-11-01T16:25:03.349Z,97831.69
2018-11-01T16:27:31.810Z,97837.98
2018-11-01T16:30:00.373Z,97834.38
2018-11-01T16:32:28.849Z,97827.25
2018-11-01T16:34:57.477Z,97824.98
2018-11-01T16:37:26.009Z,97817.80
2018-11-01T16:39:54.624Z,97819.22
2018-11-01T16:42:23.198Z,97820.89
2018-11-01T16:44:51.590Z,97823.20
2018-11-01T16:47:20.076Z,97822.13
2018-11-01T16:49:48.765Z,97818.80
2018-11-01T16:52:17.291Z,97831.63
2018-11-01T16:54:45.760Z,97841.94
2018-11-01T16:57:14.263Z,97843.49
2018-11-01T16:59:42.764Z,97834.58
2018-11-01T17:02:11.232Z,97839.02
2018-11-01T17:04:40.012Z,97843.03
2018-11-01T17:07:09.435Z,97848.95
2018-11-01T17:09:37.924Z,97847.69
2018-11-01T17:12:06.735Z,97842.86
2018-11-01T17:14:35.340Z,97843.00
2018-11-01T17:17:03.823Z,97854.11
2018-11-01T17:19:32.540Z,97862.33
2018-11-01T17:22:01.600Z,97867.90
2018-11-01T17:24:30.298Z,97861.39
2018-11-01T17:26:59.033Z,97856.78
2018-11-01T17:29:28.031Z,97856.17
2018-11-01T17:31:56.653Z,97857.88
2018-11-01T17:34:25.223Z,97857.37
2018-11-01T17:36:53.720Z,97851.44
2018-11-01T17:39:22.258Z,97864.89
2018-11-01T17:41:50.765Z,97877.14
2018-11-01T17:44:19.483Z,97858.57
2018-11-01T17:46:48.313Z,97855.67
2018-11-01T17:49:17.119Z,97857.84
2018-11-01T17:51:45.624Z,97857.77
2018-11-01T17:54:14.785Z,97866.32
2018-11-01T17:56:44.624Z,97879.97
2018-11-01T17:59:13.507Z,97879.12
2018-11-01T18:01:42.309Z,97877.95
2018-11-01T18:04:11.511Z,97878.38
2018-11-01T18:06:40.438Z,97885.80
2018-11-01T18:09:12.076Z,97886.09
2018-11-01T18:11:40.596Z,97887.61
2018-11-01T18:14:09.598Z,97882.70
2018-11-01T18:16:38.735Z,97880.86
2018-11-01T18:19:07.495Z,97881.73
2018-11-01T18:21:36.023Z,97884.05
2018-11-01T18:24:05.587Z,97887.52
2018-11-01T18:26:34.305Z,97896.37
2018-11-01T18:29:02.925Z,97898.02
2018-11-01T18:31:31.472Z,97904.41
2018-11-01T18:34:00.039Z,97902.41
2018-11-01T18:36:28.812Z,97899.40
2018-11-01T18:38:57.432Z,97901.22
2018-11-01T18:41:26.329Z,97903.05
2018-11-01T18:43:54.848Z,97896.48
2018-11-01T18:46:23.626Z,97885.43
2018-11-01T18:48:52.131Z,97892.45
2018-11-01T18:51:20.621Z,97908.89
2018-11-01T18:53:49.133Z,97906.41
2018-11-01T18:56:17.775Z,97903.14
2018-11-01T18:58:46.259Z,97899.77
2018-11-01T19:01:14.899Z,97902.70
2018-11-01T19:03:43.406Z,97901.30
2018-11-01T19:06:12.345Z,97912.17
2018-11-01T19:08:40.848Z,97914.05
2018-11-01T19:11:09.379Z,97914.64
2018-11-01T19:13:38.000Z,97910.44
2018-11-01T19:16:06.499Z,97915.45
2018-11-01T19:18:34.904Z,97917.30
2018-11-01T19:21:03.343Z,97918.73
2018-11-01T19:23:31.887Z,97916.39
2018-11-01T19:26:00.389Z,97921.27
2018-11-01T19:28:28.981Z,97916.22
2018-11-01T19:30:57.729Z,97927.56
2018-11-01T19:33:26.676Z,97923.69
2018-11-01T19:35:55.199Z,97929.14
2018-11-01T19:38:23.878Z,97931.50
2018-11-01T19:40:52.359Z,97932.12
2018-11-01T19:43:20.862Z,97940.98
2018-11-01T19:45:49.688Z,97948.19
2018-11-01T19:48:18.250Z,97952.80
2018-11-01T19:50:47.015Z,97951.22
2018-11-01T19:53:15.508Z,97962.02
2018-11-01T19:55:44.335Z,97959.80
2018-11-01T19:58:12.885Z,97968.22
2018-11-01T20:00:41.399Z,97975.53
2018-11-01T20:03:09.903Z,97977.09
2018-11-01T20:05:38.873Z,97973.00
2018-11-01T20:08:07.410Z,97978.76
2018-11-01T20:10:35.935Z,97986.06
2018-11-01T20:13:04.475Z,97992.92
2018-11-01T20:15:33.002Z,98000.89
2018-11-01T20:18:01.496Z,97995.95
2018-11-01T20:20:30.256Z,97998.02
2018-11-01T20:22:59.707Z,97995.19
2018-11-01T20:25:28.223Z,97994.16
2018-11-01T20:27:56.754Z,97994.98
2018-11-01T20:30:25.249Z,97993.41
2018-11-01T20:32:53.783Z,97994.25
2018-11-01T20:35:22.518Z,98004.47
2018-11-01T20:37:51.129Z,98009.09
2018-11-01T20:40:19.897Z,98021.56
2018-11-01T20:42:48.362Z,98023.32
2018-11-01T20:45:16.903Z,98022.45
2018-11-01T20:47:45.460Z,98027.82
2018-11-01T20:50:14.980Z,98035.91
2018-11-01T20:52:43.473Z,98036.91
2018-11-01T20:55:12.024Z,98050.50
2018-11-01T20:57:40.616Z,98057.27
2018-11-01T21:00:10.983Z,98063.30
2018-11-01T21:02:40.066Z,98070.73
2018-11-01T21:05:09.134Z,98065.45
2018-11-01T21:07:37.536Z,98075.90
2018-11-01T21:10:07.377Z,98084.16
2018-11-01T21:12:36.244Z,98083.74
2018-11-01T21:15:05.996Z,98084.25
2018-11-01T21:17:34.491Z,98091.44
2018-11-01T21:20:03.291Z,98086.11
2018-11-01T21:22:31.734Z,98084.20
2018-11-01T21:25:00.388Z,98084.38
2018-11-01T21:27:28.908Z,98081.69
2018-11-01T21:29:57.487Z,98088.42
2018-11-01T21:32:26.004Z,98064.21
2018-11-01T21:34:54.563Z,98099.89
2018-11-01T21:37:23.402Z,98092.89
2018-11-01T21:39:51.872Z,98107.44
2018-11-01T21:42:20.519Z,98113.59
2018-11-01T21:44:49.351Z,98122.33
2018-11-01T21:47:17.835Z,98129.76
2018-11-01T21:49:46.340Z,98143.15
2018-11-01T21:52:14.852Z,98149.94
2018-11-01T21:54:43.646Z,98150.44
2018-11-01T21:57:12.131Z,98157.25
2018-11-01T21:59:40.617Z,98161.30
2018-11-01T22:02:09.120Z,98162.73
2018-11-01T22:04:37.667Z,98171.39
2018-11-01T22:07:06.604Z,98176.22
2018-11-01T22:09:36.184Z,98181.83
2018-11-01T22:12:05.444Z,98176.31
2018-11-01T22:14:33.964Z,98182.58
2018-11-01T22:17:02.664Z,98185.16
2018-11-01T22:19:31.463Z,98193.84
2018-11-01T22:21:59.964Z,98198.34
2018-11-01T22:24:28.461Z,98195.52
2018-11-01T22:26:57.200Z,98202.23
2018-11-01T22:29:25.735Z,98196.77
2018-11-01T22:31:54.203Z,98200.20
2018-11-01T22:34:23.092Z,98203.51
2018-11-01T22:36:51.582Z,98199.37
2018-11-01T22:39:20.041Z,98201.45
2018-11-01T22:41:48.551Z,98214.93
2018-11-01T22:44:17.005Z,98212.47
2018-11-01T22:46:45.650Z,98205.96
2018-11-01T22:49:14.099Z,98211.11
2018-11-01T22:51:42.692Z,98215.20
2018-11-01T22:54:11.169Z,98226.95
2018-11-01T22:56:39.683Z,98231.45
2018-11-01T22:59:08.322Z,98227.91
2018-11-01T23:01:36.815Z,98239.27
2018-11-01T23:04:05.695Z,98241.92
2018-11-01T23:06:34.184Z,98243.73
2018-11-01T23:09:03.303Z,98246.06
2018-11-01T23:11:31.782Z,98256.63
2018-11-01T23:14:00.301Z,98258.70
2018-11-01T23:16:28.755Z,98263.05
2018-11-01T23:18:57.174Z,98269.53
2018-11-01T23:21:25.680Z,98272.58
2018-11-01T23:23:54.272Z,98268.02
2018-11-01T23:26:22.855Z,98271.25
2018-11-01T23:28:51.548Z,98272.56
2018-11-01T23:31:20.035Z,98270.25
2018-11-01T23:33:48.529Z,98274.27
2018-11-01T23:36:16.232Z,98284.71
2018-11-01T23:38:49.934Z,98289.27
2018-11-01T23:41:23.713Z,98290.75
2018-11-01T23:43:57.383Z,98304.34
2018-11-01T23:46:31.255Z,98309.87
2018-11-01T23:49:16.462Z,98319.41
2018-11-01T23:51:51.599Z,98332.13
2018-11-01T23:54:20.100Z,98338.35
2018-11-01T23:56:48.945Z,98313.14
2018-11-01T23:59:17.452Z,98338.48
